Bible Grove, Illinois
Current Conditions -  °F | °C
As of 7:15 AM on Tuesday 21 Oct 2014 (Local Time) from KFOA Reporting Station
Clear Clear  
Wind Chill: 41°   Ceiling: Unl
Heat Index: 43°   Visibility: 10mi
Dew Point: 43°   Wind: 5mph
Humidity: 97%   Direction: 350°N
Pressure: 30.07"   Gusts: NA
Location:  38.8267°N, 88.5024°W
Report Text: KFOA 211215Z AUTO 35004KT 10SM CLR 06/06 A3007 RMK AO2 T00630059
Loading
Personal Weather Stations






























Interactive Weather Map
Tropical Storm Tracking
New forecast layout! Learn more

10-Day Weather Forecast

Advertisements
Track Severe Weather on mobile